createdAt,value
2023-03-23T16:00:44.303Z,18.73
2023-03-23T16:03:59.537Z,16.90
2023-03-23T16:07:07.292Z,16.25
2023-03-23T16:10:19.368Z,15.70
2023-03-23T16:13:25.143Z,13.20
2023-03-23T16:16:49.721Z,18.85
2023-03-23T16:19:55.889Z,18.13
2023-03-23T16:23:01.320Z,16.02
2023-03-23T16:26:07.218Z,20.92
2023-03-23T16:29:28.427Z,18.30
2023-03-23T16:35:44.488Z,19.88
2023-03-23T16:38:53.038Z,17.92
2023-03-23T16:42:00.944Z,18.30
2023-03-23T16:45:07.387Z,27.23
2023-03-23T16:48:15.063Z,18.13
2023-03-23T16:51:21.239Z,27.23
2023-03-23T16:54:26.884Z,15.13
2023-03-23T16:57:35.489Z,18.77
2023-03-23T17:00:41.666Z,25.95
2023-03-23T17:03:47.131Z,17.50
2023-03-23T17:06:52.658Z,19.00
2023-03-23T17:09:58.626Z,17.52
2023-03-23T17:13:04.632Z,18.42
2023-03-23T17:16:10.856Z,19.08
2023-03-23T17:19:16.528Z,18.95
2023-03-23T17:22:22.199Z,26.90
2023-03-23T17:25:30.629Z,22.58
2023-03-23T17:28:36.563Z,17.23
2023-03-23T17:31:42.103Z,17.17
2023-03-23T17:34:48.100Z,19.40
2023-03-23T17:37:53.705Z,24.15
2023-03-23T17:41:00.722Z,26.65
2023-03-23T17:44:07.034Z,24.38
2023-03-23T17:47:13.107Z,26.10
2023-03-23T17:50:19.285Z,26.10
2023-03-23T17:53:26.730Z,27.33
2023-03-23T17:56:32.722Z,18.05
2023-03-23T17:59:38.339Z,30.65
2023-03-23T18:02:44.011Z,26.08
2023-03-23T18:05:51.325Z,20.85
2023-03-23T18:08:56.826Z,29.58
2023-03-23T18:12:02.030Z,24.73
2023-03-23T18:15:09.496Z,24.40
2023-03-23T18:18:14.690Z,26.10
2023-03-23T18:21:20.177Z,25.85
2023-03-23T18:24:25.663Z,23.38
2023-03-23T18:27:31.836Z,28.30
2023-03-23T18:30:37.252Z,30.58
2023-03-23T18:33:46.832Z,27.05
2023-03-23T18:36:52.540Z,31.30
2023-03-23T18:39:57.973Z,27.52
2023-03-23T18:43:03.366Z,30.45
2023-03-23T18:46:11.333Z,30.60
2023-03-23T18:49:16.425Z,24.35
2023-03-23T18:52:26.866Z,30.55
2023-03-23T18:55:32.596Z,25.52
2023-03-23T18:58:38.709Z,27.85
2023-03-23T19:01:44.154Z,25.45
2023-03-23T19:04:50.157Z,23.52
2023-03-23T19:07:55.682Z,29.45
2023-03-23T19:11:04.423Z,22.42
2023-03-23T19:14:09.874Z,30.38
2023-03-23T19:17:16.166Z,20.55
2023-03-23T19:23:35.444Z,25.23
2023-03-23T19:26:43.575Z,27.60
2023-03-23T19:29:49.088Z,22.33
2023-03-23T19:32:54.880Z,27.85
2023-03-23T19:36:09.137Z,25.73
2023-03-23T19:39:17.912Z,25.27
2023-03-23T19:42:23.852Z,32.35
2023-03-23T19:45:29.344Z,33.55
2023-03-23T19:48:34.796Z,33.92
2023-03-23T19:51:41.120Z,31.02
2023-03-23T19:54:46.543Z,32.17
2023-03-23T19:57:52.328Z,32.25
2023-03-23T20:01:00.943Z,27.85
2023-03-23T20:04:07.181Z,28.15
2023-03-23T20:07:12.763Z,29.65
2023-03-23T20:10:18.713Z,44.47
2023-03-23T20:13:24.322Z,46.90
2023-03-23T20:16:30.036Z,36.20
2023-03-23T20:19:36.636Z,51.33
2023-03-23T20:22:42.898Z,39.28
2023-03-23T20:28:56.538Z,50.05
2023-03-23T20:32:02.333Z,38.17
2023-03-23T20:35:10.964Z,50.13
2023-03-23T20:38:18.608Z,40.35
2023-03-23T20:41:24.719Z,51.80
2023-03-23T20:44:35.211Z,38.67
2023-03-23T20:47:41.840Z,43.08
2023-03-23T20:50:47.495Z,41.72
2023-03-23T20:53:53.565Z,44.92
2023-03-23T20:56:59.686Z,34.63
2023-03-23T21:00:06.903Z,34.42
2023-03-23T21:03:13.750Z,38.70
2023-03-23T21:06:19.588Z,39.70
2023-03-23T21:09:25.632Z,45.75
2023-03-23T21:12:31.077Z,38.33
2023-03-23T21:15:36.813Z,49.88
2023-03-23T21:18:42.628Z,42.78
2023-03-23T21:21:56.835Z,45.63
2023-03-23T21:25:02.809Z,47.78
2023-03-23T21:28:09.299Z,46.90
2023-03-23T21:31:15.451Z,48.28
2023-03-23T21:34:20.869Z,50.38
2023-03-23T21:37:26.641Z,53.40
2023-03-23T21:40:32.418Z,52.35
2023-03-23T21:43:41.054Z,50.80
2023-03-23T21:46:46.988Z,52.88
2023-03-23T21:49:52.828Z,53.20
2023-03-23T21:52:58.100Z,55.95
2023-03-23T21:56:06.099Z,61.35
2023-03-23T21:59:11.875Z,54.08
2023-03-23T22:02:17.674Z,47.78
2023-03-23T22:05:23.642Z,51.95
2023-03-23T22:08:30.257Z,48.13
2023-03-23T22:11:37.634Z,51.85
2023-03-23T22:14:43.178Z,52.72
2023-03-23T22:17:48.985Z,49.45
2023-03-23T22:20:54.625Z,57.67
2023-03-23T22:24:01.352Z,49.72
2023-03-23T22:27:07.396Z,52.15
2023-03-23T22:30:13.832Z,53.47
2023-03-23T22:33:20.249Z,51.33
2023-03-23T22:36:28.273Z,43.88
2023-03-23T22:39:35.110Z,51.65
2023-03-23T22:42:40.959Z,44.25
2023-03-23T22:45:46.698Z,54.53
2023-03-23T22:48:52.898Z,54.45
2023-03-23T22:51:58.308Z,48.55
2023-03-23T22:55:06.053Z,48.90
2023-03-23T22:58:12.346Z,48.08
2023-03-23T23:01:23.165Z,57.00
2023-03-23T23:04:30.811Z,54.83
2023-03-23T23:07:37.180Z,55.72
2023-03-23T23:10:46.597Z,57.47
2023-03-23T23:13:53.036Z,53.58
2023-03-23T23:16:58.577Z,51.75
2023-03-23T23:20:07.975Z,50.60
2023-03-23T23:23:13.537Z,51.05
2023-03-23T23:26:20.212Z,52.15
2023-03-23T23:29:26.154Z,52.10
2023-03-23T23:32:32.510Z,49.78
2023-03-23T23:35:38.710Z,52.60
2023-03-23T23:38:45.097Z,53.75
2023-03-23T23:41:51.050Z,54.53
2023-03-23T23:44:56.604Z,50.03
2023-03-23T23:48:02.315Z,48.55
2023-03-23T23:51:08.614Z,53.50
2023-03-23T23:54:15.168Z,49.55
2023-03-23T23:57:20.644Z,50.17
